sensor_id;sensor_type;location;lat;lon;timestamp;pressure;altitude;pressure_sealevel;temperature;humidity
77590;BME280;66746;51.328;12.332;2024-02-21T00:00:30;101103.75;;;8.04;95.90
77590;BME280;66746;51.328;12.332;2024-02-21T00:02:58;101091.16;;;8.03;95.51
77590;BME280;66746;51.328;12.332;2024-02-21T00:05:26;101089.31;;;8.05;94.81
77590;BME280;66746;51.328;12.332;2024-02-21T00:07:53;101078.63;;;7.99;95.08
77590;BME280;66746;51.328;12.332;2024-02-21T00:10:19;101085.75;;;8.03;96.04
77590;BME280;66746;51.328;12.332;2024-02-21T00:12:46;101081.28;;;8.01;95.84
77590;BME280;66746;51.328;12.332;2024-02-21T00:15:13;101073.22;;;7.99;95.29
77590;BME280;66746;51.328;12.332;2024-02-21T00:17:39;101072.34;;;7.97;96.86
77590;BME280;66746;51.328;12.332;2024-02-21T00:20:08;101073.28;;;7.96;95.88
77590;BME280;66746;51.328;12.332;2024-02-21T00:22:35;101061.63;;;7.91;97.23
77590;BME280;66746;51.328;12.332;2024-02-21T00:25:02;101061.66;;;7.90;98.04
77590;BME280;66746;51.328;12.332;2024-02-21T00:27:28;101052.75;;;7.85;96.69
77590;BME280;66746;51.328;12.332;2024-02-21T00:29:55;101059.03;;;7.85;97.60
77590;BME280;66746;51.328;12.332;2024-02-21T00:32:21;101058.94;;;7.91;98.03
77590;BME280;66746;51.328;12.332;2024-02-21T00:34:48;101058.94;;;7.91;95.63
77590;BME280;66746;51.328;12.332;2024-02-21T00:37:16;101053.50;;;7.94;96.90
77590;BME280;66746;51.328;12.332;2024-02-21T00:39:42;101050.94;;;7.87;97.68
77590;BME280;66746;51.328;12.332;2024-02-21T00:42:09;101040.22;;;7.81;97.20
77590;BME280;66746;51.328;12.332;2024-02-21T00:44:35;101041.16;;;7.78;98.72
77590;BME280;66746;51.328;12.332;2024-02-21T00:47:02;101037.59;;;7.76;97.60
77590;BME280;66746;51.328;12.332;2024-02-21T00:49:29;101035.78;;;7.75;98.62
77590;BME280;66746;51.328;12.332;2024-02-21T00:51:55;101027.69;;;7.75;97.71
77590;BME280;66746;51.328;12.332;2024-02-21T00:54:23;101028.59;;;7.76;98.06
77590;BME280;66746;51.328;12.332;2024-02-21T00:56:49;101024.13;;;7.75;98.83
77590;BME280;66746;51.328;12.332;2024-02-21T00:59:19;101025.94;;;7.73;98.65
77590;BME280;66746;51.328;12.332;2024-02-21T01:01:45;101021.44;;;7.72;97.96
77590;BME280;66746;51.328;12.332;2024-02-21T01:04:12;101026.84;;;7.72;98.89
77590;BME280;66746;51.328;12.332;2024-02-21T01:06:40;101019.66;;;7.72;98.88
77590;BME280;66746;51.328;12.332;2024-02-21T01:09:07;101009.78;;;7.71;98.47
77590;BME280;66746;51.328;12.332;2024-02-21T01:11:35;101012.50;;;7.68;97.44
77590;BME280;66746;51.328;12.332;2024-02-21T01:14:02;101010.69;;;7.70;98.15
77590;BME280;66746;51.328;12.332;2024-02-21T01:16:28;101005.34;;;7.67;97.68
77590;BME280;66746;51.328;12.332;2024-02-21T01:18:55;100996.38;;;7.65;97.88
77590;BME280;66746;51.328;12.332;2024-02-21T01:21:21;101003.50;;;7.71;99.03
77590;BME280;66746;51.328;12.332;2024-02-21T01:23:48;100994.50;;;7.70;99.07
77590;BME280;66746;51.328;12.332;2024-02-21T01:26:14;101008.91;;;7.69;99.20
77590;BME280;66746;51.328;12.332;2024-02-21T01:28:42;100994.44;;;7.75;97.68
77590;BME280;66746;51.328;12.332;2024-02-21T01:31:10;100994.50;;;7.70;99.53
77590;BME280;66746;51.328;12.332;2024-02-21T01:33:36;100990.97;;;7.67;99.90
77590;BME280;66746;51.328;12.332;2024-02-21T01:36:03;100986.47;;;7.64;100.00
77590;BME280;66746;51.328;12.332;2024-02-21T01:38:30;100982.81;;;7.68;97.59
77590;BME280;66746;51.328;12.332;2024-02-21T01:40:57;100977.47;;;7.67;98.49
77590;BME280;66746;51.328;12.332;2024-02-21T01:43:23;100970.16;;;7.72;98.65
77590;BME280;66746;51.328;12.332;2024-02-21T01:45:53;100976.53;;;7.69;99.30
77590;BME280;66746;51.328;12.332;2024-02-21T01:48:21;100967.56;;;7.67;98.63
77590;BME280;66746;51.328;12.332;2024-02-21T01:50:49;100970.06;;;7.78;98.13
77590;BME280;66746;51.328;12.332;2024-02-21T01:53:18;100955.84;;;7.68;98.40
77590;BME280;66746;51.328;12.332;2024-02-21T01:55:46;100963.91;;;7.71;97.63
77590;BME280;66746;51.328;12.332;2024-02-21T01:58:14;100969.31;;;7.68;98.18
77590;BME280;66746;51.328;12.332;2024-02-21T02:00:42;100961.25;;;7.67;98.90
77590;BME280;66746;51.328;12.332;2024-02-21T02:03:14;100960.34;;;7.69;99.13
77590;BME280;66746;51.328;12.332;2024-02-21T02:05:44;100954.94;;;7.69;99.06
77590;BME280;66746;51.328;12.332;2024-02-21T02:08:10;100954.03;;;7.69;97.57
77590;BME280;66746;51.328;12.332;2024-02-21T02:10:37;100946.84;;;7.68;99.45
77590;BME280;66746;51.328;12.332;2024-02-21T02:13:04;100951.38;;;7.67;99.68
77590;BME280;66746;51.328;12.332;2024-02-21T02:15:37;100942.31;;;7.71;98.11
77590;BME280;66746;51.328;12.332;2024-02-21T02:18:04;100935.94;;;7.74;97.78
77590;BME280;66746;51.328;12.332;2024-02-21T02:20:32;100937.75;;;7.75;99.02
77590;BME280;66746;51.328;12.332;2024-02-21T02:22:59;100930.53;;;7.74;97.39
77590;BME280;66746;51.328;12.332;2024-02-21T02:25:28;100928.81;;;7.71;97.58
77590;BME280;66746;51.328;12.332;2024-02-21T02:27:55;100922.47;;;7.72;97.27
77590;BME280;66746;51.328;12.332;2024-02-21T02:30:21;100920.69;;;7.73;98.63
77590;BME280;66746;51.328;12.332;2024-02-21T02:32:48;100914.41;;;7.71;97.52
77590;BME280;66746;51.328;12.332;2024-02-21T02:35:15;100922.50;;;7.71;99.46
77590;BME280;66746;51.328;12.332;2024-02-21T02:37:47;100913.56;;;7.67;97.69
77590;BME280;66746;51.328;12.332;2024-02-21T02:40:14;100907.28;;;7.67;99.08
77590;BME280;66746;51.328;12.332;2024-02-21T02:42:42;100914.50;;;7.65;98.38
77590;BME280;66746;51.328;12.332;2024-02-21T02:45:09;100910.94;;;7.63;99.37
77590;BME280;66746;51.328;12.332;2024-02-21T02:47:36;100908.28;;;7.61;99.51
77590;BME280;66746;51.328;12.332;2024-02-21T02:50:03;100906.47;;;7.60;99.58
77590;BME280;66746;51.328;12.332;2024-02-21T02:52:30;100902.88;;;7.61;99.13
77590;BME280;66746;51.328;12.332;2024-02-21T02:54:56;100903.78;;;7.60;100.00
77590;BME280;66746;51.328;12.332;2024-02-21T02:57:23;100904.72;;;7.59;100.00
77590;BME280;66746;51.328;12.332;2024-02-21T02:59:51;100905.59;;;7.60;100.00
77590;BME280;66746;51.328;12.332;2024-02-21T03:02:17;100905.66;;;7.57;100.00
77590;BME280;66746;51.328;12.332;2024-02-21T03:04:44;100905.69;;;7.55;100.00
77590;BME280;66746;51.328;12.332;2024-02-21T03:07:11;100892.19;;;7.55;100.00
77590;BME280;66746;51.328;12.332;2024-02-21T03:09:38;100888.53;;;7.58;100.00
77590;BME280;66746;51.328;12.332;2024-02-21T03:12:05;100886.78;;;7.55;99.39
77590;BME280;66746;51.328;12.332;2024-02-21T03:14:32;100899.38;;;7.55;100.00
77590;BME280;66746;51.328;12.332;2024-02-21T03:17:00;100896.66;;;7.56;100.00
77590;BME280;66746;51.328;12.332;2024-02-21T03:19:27;100889.50;;;7.55;98.94
77590;BME280;66746;51.328;12.332;2024-02-21T03:21:54;100896.69;;;7.55;99.50
77590;BME280;66746;51.328;12.332;2024-02-21T03:24:21;100901.09;;;7.60;99.76
77590;BME280;66746;51.328;12.332;2024-02-21T03:26:48;100897.47;;;7.60;100.00
77590;BME280;66746;51.328;12.332;2024-02-21T03:29:15;100893.91;;;7.59;100.00
77590;BME280;66746;51.328;12.332;2024-02-21T03:31:42;100895.66;;;7.62;99.35
77590;BME280;66746;51.328;12.332;2024-02-21T03:34:11;100897.34;;;7.69;99.12
77590;BME280;66746;51.328;12.332;2024-02-21T03:36:38;100894.63;;;7.70;97.37
77590;BME280;66746;51.328;12.332;2024-02-21T03:39:04;100895.47;;;7.72;98.19
77590;BME280;66746;51.328;12.332;2024-02-21T03:41:30;100898.19;;;7.72;98.96
77590;BME280;66746;51.328;12.332;2024-02-21T03:43:57;100887.41;;;7.71;97.95
77590;BME280;66746;51.328;12.332;2024-02-21T03:46:24;100894.63;;;7.70;97.97
77590;BME280;66746;51.328;12.332;2024-02-21T03:48:50;100892.78;;;7.72;97.47
77590;BME280;66746;51.328;12.332;2024-02-21T03:51:18;100899.03;;;7.74;98.12
77590;BME280;66746;51.328;12.332;2024-02-21T03:53:45;100894.59;;;7.72;99.02
77590;BME280;66746;51.328;12.332;2024-02-21T03:56:12;100900.88;;;7.72;97.66
77590;BME280;66746;51.328;12.332;2024-02-21T03:58:41;100894.63;;;7.70;99.05
77590;BME280;66746;51.328;12.332;2024-02-21T04:01:08;100900.81;;;7.75;96.87
77590;BME280;66746;51.328;12.332;2024-02-21T04:03:34;100891.81;;;7.76;98.38
77590;BME280;66746;51.328;12.332;2024-02-21T04:06:01;100888.25;;;7.74;98.27
77590;BME280;66746;51.328;12.332;2024-02-21T04:08:29;100897.25;;;7.73;98.53
77590;BME280;66746;51.328;12.332;2024-02-21T04:10:56;100896.31;;;7.76;99.60
77590;BME280;66746;51.328;12.332;2024-02-21T04:13:22;100892.72;;;7.77;99.89
77590;BME280;66746;51.328;12.332;2024-02-21T04:15:49;100886.44;;;7.73;100.00
77590;BME280;66746;51.328;12.332;2024-02-21T04:18:15;100888.31;;;7.71;100.00
77590;BME280;66746;51.328;12.332;2024-02-21T04:20:42;100897.25;;;7.73;100.00
77590;BME280;66746;51.328;12.332;2024-02-21T04:23:08;100882.03;;;7.71;100.00
77590;BME280;66746;51.328;12.332;2024-02-21T04:25:36;100881.13;;;7.70;100.00
77590;BME280;66746;51.328;12.332;2024-02-21T04:28:04;100875.66;;;7.73;100.00
77590;BME280;66746;51.328;12.332;2024-02-21T04:30:30;100872.06;;;7.74;100.00
77590;BME280;66746;51.328;12.332;2024-02-21T04:32:57;100874.78;;;7.73;100.00
77590;BME280;66746;51.328;12.332;2024-02-21T04:35:23;100863.09;;;7.72;100.00
77590;BME280;66746;51.328;12.332;2024-02-21T04:37:50;100859.50;;;7.72;100.00
77590;BME280;66746;51.328;12.332;2024-02-21T04:40:16;100858.66;;;7.68;100.00
77590;BME280;66746;51.328;12.332;2024-02-21T04:42:45;100857.78;;;7.66;100.00
77590;BME280;66746;51.328;12.332;2024-02-21T04:45:11;100862.25;;;7.69;100.00
77590;BME280;66746;51.328;12.332;2024-02-21T04:47:38;100859.63;;;7.64;100.00
77590;BME280;66746;51.328;12.332;2024-02-21T04:50:05;100857.88;;;7.63;100.00
77590;BME280;66746;51.328;12.332;2024-02-21T04:52:32;100848.00;;;7.61;100.00
77590;BME280;66746;51.328;12.332;2024-02-21T04:54:58;100843.41;;;7.67;100.00
77590;BME280;66746;51.328;12.332;2024-02-21T04:57:25;100838.00;;;7.67;100.00
77590;BME280;66746;51.328;12.332;2024-02-21T04:59:53;100830.88;;;7.63;100.00
77590;BME280;66746;51.328;12.332;2024-02-21T05:02:20;100833.53;;;7.65;100.00
77590;BME280;66746;51.328;12.332;2024-02-21T05:04:46;100829.03;;;7.65;100.00
77590;BME280;66746;51.328;12.332;2024-02-21T05:07:16;100809.28;;;7.63;100.00
77590;BME280;66746;51.328;12.332;2024-02-21T05:09:42;100806.63;;;7.60;100.00
77590;BME280;66746;51.328;12.332;2024-02-21T05:12:09;100816.56;;;7.58;100.00
77590;BME280;66746;51.328;12.332;2024-02-21T05:14:36;100797.63;;;7.60;100.00
77590;BME280;66746;51.328;12.332;2024-02-21T05:17:04;100798.50;;;7.62;100.00
77590;BME280;66746;51.328;12.332;2024-02-21T05:19:30;100794.06;;;7.58;100.00
77590;BME280;66746;51.328;12.332;2024-02-21T05:21:59;100797.66;;;7.58;100.00
77590;BME280;66746;51.328;12.332;2024-02-21T05:24:26;100793.97;;;7.64;100.00
77590;BME280;66746;51.328;12.332;2024-02-21T05:26:53;100795.84;;;7.60;100.00
77590;BME280;66746;51.328;12.332;2024-02-21T05:29:20;100786.00;;;7.56;100.00
77590;BME280;66746;51.328;12.332;2024-02-21T05:31:56;100789.56;;;7.58;100.00
77590;BME280;66746;51.328;12.332;2024-02-21T05:34:25;100790.44;;;7.60;100.00
77590;BME280;66746;51.328;12.332;2024-02-21T05:36:52;100790.47;;;7.59;100.00
77590;BME280;66746;51.328;12.332;2024-02-21T05:39:19;100783.28;;;7.58;100.00
77590;BME280;66746;51.328;12.332;2024-02-21T05:41:46;100781.56;;;7.55;100.00
77590;BME280;66746;51.328;12.332;2024-02-21T05:44:12;100767.19;;;7.53;100.00
77590;BME280;66746;51.328;12.332;2024-02-21T05:46:39;100779.72;;;7.56;100.00
77590;BME280;66746;51.328;12.332;2024-02-21T05:49:05;100775.28;;;7.53;100.00
77590;BME280;66746;51.328;12.332;2024-02-21T05:51:33;100776.19;;;7.52;100.00
77590;BME280;66746;51.328;12.332;2024-02-21T05:54:00;100772.53;;;7.56;100.00
77590;BME280;66746;51.328;12.332;2024-02-21T05:56:27;100782.44;;;7.54;100.00
77590;BME280;66746;51.328;12.332;2024-02-21T05:58:54;100779.75;;;7.54;100.00
77590;BME280;66746;51.328;12.332;2024-02-21T06:01:20;100769.91;;;7.53;100.00
77590;BME280;66746;51.328;12.332;2024-02-21T06:03:47;100766.38;;;7.48;100.00
77590;BME280;66746;51.328;12.332;2024-02-21T06:06:14;100755.69;;;7.42;100.00
77590;BME280;66746;51.328;12.332;2024-02-21T06:08:42;100750.41;;;7.36;100.00
77590;BME280;66746;51.328;12.332;2024-02-21T06:11:09;100745.09;;;7.33;100.00
77590;BME280;66746;51.328;12.332;2024-02-21T06:13:38;100752.31;;;7.31;100.00
77590;BME280;66746;51.328;12.332;2024-02-21T06:16:06;100764.00;;;7.32;100.00
77590;BME280;66746;51.328;12.332;2024-02-21T06:18:33;100746.91;;;7.31;100.00
77590;BME280;66746;51.328;12.332;2024-02-21T06:24:06;100739.78;;;7.27;100.00
77590;BME280;66746;51.328;12.332;2024-02-21T06:26:34;100749.72;;;7.25;100.00
77590;BME280;66746;51.328;12.332;2024-02-21T06:29:00;100762.31;;;7.25;100.00
77590;BME280;66746;51.328;12.332;2024-02-21T06:31:27;100760.53;;;7.24;100.00
77590;BME280;66746;51.328;12.332;2024-02-21T06:33:54;100769.56;;;7.21;100.00
77590;BME280;66746;51.328;12.332;2024-02-21T06:36:21;100775.91;;;7.20;100.00
77590;BME280;66746;51.328;12.332;2024-02-21T06:38:47;100768.72;;;7.19;100.00
77590;BME280;66746;51.328;12.332;2024-02-21T06:41:16;100770.44;;;7.23;100.00
77590;BME280;66746;51.328;12.332;2024-02-21T06:43:42;100786.50;;;7.29;100.00
77590;BME280;66746;51.328;12.332;2024-02-21T06:46:09;100782.94;;;7.27;100.00
77590;BME280;66746;51.328;12.332;2024-02-21T06:48:35;100796.41;;;7.30;100.00
77590;BME280;66746;51.328;12.332;2024-02-21T06:51:03;100796.41;;;7.29;100.00
77590;BME280;66746;51.328;12.332;2024-02-21T06:53:29;100807.13;;;7.33;100.00
77590;BME280;66746;51.328;12.332;2024-02-21T06:55:56;100825.09;;;7.33;100.00
77590;BME280;66746;51.328;12.332;2024-02-21T06:58:24;100811.72;;;7.28;100.00
77590;BME280;66746;51.328;12.332;2024-02-21T07:00:50;100809.03;;;7.28;100.00
77590;BME280;66746;51.328;12.332;2024-02-21T07:03:17;100824.22;;;7.34;100.00
77590;BME280;66746;51.328;12.332;2024-02-21T07:05:44;100824.19;;;7.35;100.00
77590;BME280;66746;51.328;12.332;2024-02-21T07:08:10;100827.75;;;7.37;100.00
77590;BME280;66746;51.328;12.332;2024-02-21T07:10:37;100833.13;;;7.37;100.00
77590;BME280;66746;51.328;12.332;2024-02-21T07:13:04;100831.31;;;7.39;100.00
77590;BME280;66746;51.328;12.332;2024-02-21T07:15:31;100822.16;;;7.48;100.00
77590;BME280;66746;51.328;12.332;2024-02-21T07:17:58;100814.94;;;7.48;100.00
77590;BME280;66746;51.328;12.332;2024-02-21T07:20:25;100825.53;;;7.60;100.00
77590;BME280;66746;51.328;12.332;2024-02-21T07:22:52;100831.75;;;7.64;100.00
77590;BME280;66746;51.328;12.332;2024-02-21T07:25:18;100827.31;;;7.61;100.00
77590;BME280;66746;51.328;12.332;2024-02-21T07:27:45;100829.91;;;7.67;100.00
77590;BME280;66746;51.328;12.332;2024-02-21T07:30:12;100828.94;;;7.71;100.00
77590;BME280;66746;51.328;12.332;2024-02-21T07:32:44;100830.59;;;7.78;100.00
77590;BME280;66746;51.328;12.332;2024-02-21T07:35:11;100826.94;;;7.79;100.00
77590;BME280;66746;51.328;12.332;2024-02-21T07:37:40;100820.56;;;7.83;100.00
77590;BME280;66746;51.328;12.332;2024-02-21T07:40:12;100827.72;;;7.86;100.00
77590;BME280;66746;51.328;12.332;2024-02-21T07:42:39;100823.16;;;7.89;100.00
77590;BME280;66746;51.328;12.332;2024-02-21T07:45:05;100824.97;;;7.90;100.00
77590;BME280;66746;51.328;12.332;2024-02-21T07:47:32;100823.13;;;7.92;100.00
77590;BME280;66746;51.328;12.332;2024-02-21T07:50:00;100810.59;;;7.88;100.00
77590;BME280;66746;51.328;12.332;2024-02-21T07:52:27;100802.31;;;7.97;100.00
77590;BME280;66746;51.328;12.332;2024-02-21T07:54:55;100794.19;;;7.97;100.00
77590;BME280;66746;51.328;12.332;2024-02-21T07:57:22;100794.06;;;8.03;100.00
77590;BME280;66746;51.328;12.332;2024-02-21T07:59:49;100800.34;;;8.05;100.00
77590;BME280;66746;51.328;12.332;2024-02-21T08:02:16;100793.06;;;8.09;100.00
77590;BME280;66746;51.328;12.332;2024-02-21T08:04:42;100783.03;;;8.16;100.00
77590;BME280;66746;51.328;12.332;2024-02-21T08:07:11;100773.13;;;8.16;100.00
77590;BME280;66746;51.328;12.332;2024-02-21T08:09:39;100767.59;;;8.21;100.00
77590;BME280;66746;51.328;12.332;2024-02-21T08:12:06;100772.13;;;8.20;100.00
77590;BME280;66746;51.328;12.332;2024-02-21T08:14:33;100771.31;;;8.15;100.00
77590;BME280;66746;51.328;12.332;2024-02-21T08:16:59;100776.72;;;8.15;100.00
77590;BME280;66746;51.328;12.332;2024-02-21T08:19:28;100778.53;;;8.16;100.00
77590;BME280;66746;51.328;12.332;2024-02-21T08:21:58;100767.72;;;8.15;100.00
77590;BME280;66746;51.328;12.332;2024-02-21T08:24:26;100761.34;;;8.19;100.00
77590;BME280;66746;51.328;12.332;2024-02-21T08:26:52;100761.25;;;8.25;100.00
77590;BME280;66746;51.328;12.332;2024-02-21T08:29:21;100758.53;;;8.25;100.00
77590;BME280;66746;51.328;12.332;2024-02-21T08:31:48;100757.56;;;8.29;100.00
77590;BME280;66746;51.328;12.332;2024-02-21T08:34:18;100755.69;;;8.31;99.96
77590;BME280;66746;51.328;12.332;2024-02-21T08:36:44;100756.38;;;8.40;99.83
77590;BME280;66746;51.328;12.332;2024-02-21T08:39:13;100759.09;;;8.40;99.74
77590;BME280;66746;51.328;12.332;2024-02-21T08:41:42;100753.69;;;8.42;100.00
77590;BME280;66746;51.328;12.332;2024-02-21T08:44:22;100758.28;;;8.37;100.00
77590;BME280;66746;51.328;12.332;2024-02-21T08:46:49;100762.81;;;8.35;100.00
77590;BME280;66746;51.328;12.332;2024-02-21T08:49:16;100764.66;;;8.33;100.00
77590;BME280;66746;51.328;12.332;2024-02-21T08:51:45;100754.88;;;8.27;100.00
77590;BME280;66746;51.328;12.332;2024-02-21T08:54:11;100755.84;;;8.23;100.00
77590;BME280;66746;51.328;12.332;2024-02-21T08:56:38;100762.09;;;8.27;100.00
77590;BME280;66746;51.328;12.332;2024-02-21T08:59:06;100757.66;;;8.23;100.00
77590;BME280;66746;51.328;12.332;2024-02-21T09:01:33;100754.09;;;8.21;100.00
77590;BME280;66746;51.328;12.332;2024-02-21T09:03:59;100755.84;;;8.25;100.00
77590;BME280;66746;51.328;12.332;2024-02-21T09:06:26;100750.38;;;8.28;100.00
77590;BME280;66746;51.328;12.332;2024-02-21T09:09:02;100754.75;;;8.33;100.00
77590;BME280;66746;51.328;12.332;2024-02-21T09:11:29;100755.69;;;8.31;100.00
77590;BME280;66746;51.328;12.332;2024-02-21T09:13:56;100751.34;;;8.24;100.00
77590;BME280;66746;51.328;12.332;2024-02-21T09:16:24;100751.34;;;8.25;100.00
77590;BME280;66746;51.328;12.332;2024-02-21T09:18:51;100759.25;;;8.33;100.00
77590;BME280;66746;51.328;12.332;2024-02-21T09:21:17;100757.47;;;8.33;100.00
77590;BME280;66746;51.328;12.332;2024-02-21T09:23:45;100751.97;;;8.38;100.00
77590;BME280;66746;51.328;12.332;2024-02-21T09:26:11;100760.94;;;8.40;100.00
77590;BME280;66746;51.328;12.332;2024-02-21T09:28:42;100759.94;;;8.44;100.00
77590;BME280;66746;51.328;12.332;2024-02-21T09:31:08;100751.03;;;8.39;100.00
77590;BME280;66746;51.328;12.332;2024-02-21T09:33:36;100761.69;;;8.45;100.00
77590;BME280;66746;51.328;12.332;2024-02-21T09:36:04;100768.03;;;8.44;100.00
77590;BME280;66746;51.328;12.332;2024-02-21T09:38:31;100755.44;;;8.43;100.00
77590;BME280;66746;51.328;12.332;2024-02-21T09:40:59;100751.75;;;8.47;100.00
77590;BME280;66746;51.328;12.332;2024-02-21T09:43:28;100738.31;;;8.44;100.00
77590;BME280;66746;51.328;12.332;2024-02-21T09:45:55;100750.66;;;8.54;100.00
77590;BME280;66746;51.328;12.332;2024-02-21T09:48:30;100741.69;;;8.53;100.00
77590;BME280;66746;51.328;12.332;2024-02-21T09:51:03;100750.63;;;8.57;99.71
77590;BME280;66746;51.328;12.332;2024-02-21T09:53:30;100742.41;;;8.61;99.37
77590;BME280;66746;51.328;12.332;2024-02-21T09:55:57;100751.31;;;8.65;97.23
77590;BME280;66746;51.328;12.332;2024-02-21T09:58:26;100745.63;;;8.77;97.32
77590;BME280;66746;51.328;12.332;2024-02-21T10:00:53;100756.25;;;8.84;97.43
77590;BME280;66746;51.328;12.332;2024-02-21T10:03:22;100755.41;;;8.82;96.05
77590;BME280;66746;51.328;12.332;2024-02-21T10:05:49;100750.00;;;8.82;96.00
77590;BME280;66746;51.328;12.332;2024-02-21T10:08:19;100743.78;;;8.79;97.21
77590;BME280;66746;51.328;12.332;2024-02-21T10:10:49;100741.94;;;8.79;95.77
77590;BME280;66746;51.328;12.332;2024-02-21T10:13:24;100740.03;;;8.83;96.06
77590;BME280;66746;51.328;12.332;2024-02-21T10:16:00;100733.78;;;8.82;96.69
77590;BME280;66746;51.328;12.332;2024-02-21T10:18:27;100732.78;;;8.85;95.38
77590;BME280;66746;51.328;12.332;2024-02-21T10:21:00;100720.97;;;8.89;94.65
77590;BME280;66746;51.328;12.332;2024-02-21T10:23:28;100729.03;;;8.92;95.20
77590;BME280;66746;51.328;12.332;2024-02-21T10:26:04;100731.47;;;9.01;94.26
77590;BME280;66746;51.328;12.332;2024-02-21T10:28:31;100710.94;;;8.94;93.37
77590;BME280;66746;51.328;12.332;2024-02-21T10:30:58;100709.00;;;8.99;95.01
77590;BME280;66746;51.328;12.332;2024-02-21T10:33:25;100723.47;;;8.98;93.16
77590;BME280;66746;51.328;12.332;2024-02-21T10:35:52;100716.16;;;9.02;93.39
77590;BME280;66746;51.328;12.332;2024-02-21T10:38:18;100701.00;;;8.95;93.37
77590;BME280;66746;51.328;12.332;2024-02-21T10:40:47;100704.28;;;9.07;92.51
77590;BME280;66746;51.328;12.332;2024-02-21T10:43:15;100707.06;;;9.04;93.95
77590;BME280;66746;51.328;12.332;2024-02-21T10:45:43;100705.22;;;9.06;92.10
77590;BME280;66746;51.328;12.332;2024-02-21T10:48:11;100710.53;;;9.09;91.80
77590;BME280;66746;51.328;12.332;2024-02-21T10:50:47;100709.56;;;9.12;91.92
77590;BME280;66746;51.328;12.332;2024-02-21T10:53:24;100705.59;;;9.25;91.62
77590;BME280;66746;51.328;12.332;2024-02-21T10:55:59;100706.56;;;9.22;90.29
77590;BME280;66746;51.328;12.332;2024-02-21T10:58:29;100685.88;;;9.21;90.99
77590;BME280;66746;51.328;12.332;2024-02-21T11:00:57;100687.34;;;9.33;91.50
77590;BME280;66746;51.328;12.332;2024-02-21T11:03:24;100681.88;;;9.34;90.98
77590;BME280;66746;51.328;12.332;2024-02-21T11:05:51;100680.25;;;9.29;91.79
77590;BME280;66746;51.328;12.332;2024-02-21T11:08:18;100675.63;;;9.32;90.79
77590;BME280;66746;51.328;12.332;2024-02-21T11:10:46;100668.41;;;9.33;91.85
77590;BME280;66746;51.328;12.332;2024-02-21T11:13:14;100648.31;;;9.41;91.92
77590;BME280;66746;51.328;12.332;2024-02-21T11:15:44;100649.56;;;9.60;91.56
77590;BME280;66746;51.328;12.332;2024-02-21T11:18:10;100652.50;;;9.53;91.35
77590;BME280;66746;51.328;12.332;2024-02-21T11:20:38;100642.28;;;9.62;91.43
77590;BME280;66746;51.328;12.332;2024-02-21T11:23:05;100633.53;;;9.83;91.31
77590;BME280;66746;51.328;12.332;2024-02-21T11:25:32;100633.88;;;10.01;89.75
77590;BME280;66746;51.328;12.332;2024-02-21T11:28:00;100630.63;;;9.90;90.23
77590;BME280;66746;51.328;12.332;2024-02-21T11:30:30;100609.00;;;9.88;91.00
77590;BME280;66746;51.328;12.332;2024-02-21T11:33:03;100599.66;;;9.98;89.09
77590;BME280;66746;51.328;12.332;2024-02-21T11:35:39;100596.72;;;10.06;89.50
77590;BME280;66746;51.328;12.332;2024-02-21T11:38:11;100587.47;;;9.83;89.84
77590;BME280;66746;51.328;12.332;2024-02-21T11:40:38;100599.25;;;9.82;89.12
77590;BME280;66746;51.328;12.332;2024-02-21T11:43:08;100574.97;;;9.79;89.57
77590;BME280;66746;51.328;12.332;2024-02-21T11:45:36;100579.03;;;9.94;91.01
77590;BME280;66746;51.328;12.332;2024-02-21T11:48:05;100571.22;;;9.83;89.90
77590;BME280;66746;51.328;12.332;2024-02-21T11:50:35;100568.47;;;9.85;90.94
77590;BME280;66746;51.328;12.332;2024-02-21T11:53:09;100570.19;;;9.88;91.51
77590;BME280;66746;51.328;12.332;2024-02-21T11:55:39;100556.34;;;9.97;91.35
77590;BME280;66746;51.328;12.332;2024-02-21T11:58:15;100549.50;;;9.85;91.42
77590;BME280;66746;51.328;12.332;2024-02-21T12:00:46;100540.50;;;9.85;89.73
77590;BME280;66746;51.328;12.332;2024-02-21T12:03:15;100544.72;;;9.93;89.33
77590;BME280;66746;51.328;12.332;2024-02-21T12:05:44;100547.19;;;10.01;88.96
77590;BME280;66746;51.328;12.332;2024-02-21T12:08:11;100547.72;;;10.13;88.31
77590;BME280;66746;51.328;12.332;2024-02-21T12:10:38;100530.38;;;10.19;88.48
77590;BME280;66746;51.328;12.332;2024-02-21T12:13:06;100530.69;;;10.10;88.58
77590;BME280;66746;51.328;12.332;2024-02-21T12:15:32;100515.56;;;10.01;87.92
77590;BME280;66746;51.328;12.332;2024-02-21T12:18:05;100530.56;;;10.13;89.56
77590;BME280;66746;51.328;12.332;2024-02-21T12:20:38;100514.59;;;10.04;88.32
77590;BME280;66746;51.328;12.332;2024-02-21T12:23:09;100513.81;;;10.00;90.53
77590;BME280;66746;51.328;12.332;2024-02-21T12:25:35;100510.78;;;10.09;90.22
77590;BME280;66746;51.328;12.332;2024-02-21T12:28:02;100506.63;;;10.27;89.56
77590;BME280;66746;51.328;12.332;2024-02-21T12:30:29;100506.53;;;10.30;89.03
77590;BME280;66746;51.328;12.332;2024-02-21T12:32:55;100504.63;;;10.32;90.27
77590;BME280;66746;51.328;12.332;2024-02-21T12:35:23;100492.38;;;10.20;89.46
77590;BME280;66746;51.328;12.332;2024-02-21T12:37:50;100493.22;;;10.22;88.49
77590;BME280;66746;51.328;12.332;2024-02-21T12:40:16;100496.50;;;10.32;90.07
77590;BME280;66746;51.328;12.332;2024-02-21T12:42:43;100480.84;;;10.40;89.90
77590;BME280;66746;51.328;12.332;2024-02-21T12:45:10;100478.75;;;10.48;89.62
77590;BME280;66746;51.328;12.332;2024-02-21T12:47:39;100473.13;;;10.54;89.46
77590;BME280;66746;51.328;12.332;2024-02-21T12:50:06;100464.28;;;10.49;88.58